»·PEaware :: SWA591 KSNA-KLAS

SWA591 :: KSNA-KLAS

FLIGHT INFORMATION

Flight Status: Arrived
Operator:
Southwest Airlines
More flights by this operator :: More flights under this callsign
Pilot: Sanjiv S. (4490)
Aircraft: BOEING 737-800
(B738)
More flights by this aircraft type
Origin: KSNA John Wayne-Orange Co
United States
Destination: KLAS McCarran Intl
United States
More flights between these airports :: More routes between these airports
Route: +FINZZ2 MISEN KEPEC6
File this flight plan on PilotEdge
Remarks:
Altitude:
(Current/Filed)
27,000ft
Speed:
(Current/Filed)
425kts
Departed: 06-Oct-18 08:22 PM
Arrived: 06-Oct-18 09:18 PM
Distance/Time
Traveled:
197nm/0:56
Distance/Time
To Go:
Arrived

Flight Plot

Page will automatically refresh every two minutes.

Flight plan parsing failed; only flown route is shown


Map Options




Map Legend


Flown Route
Filed Route
Departure Airport
Arrival Airport
Navaid (VOR, NDB)
Fix

Horizontal Profiles

Position Reports

Time Latitude Longitude Heading Altitude Ground
Speed
06-Oct-18 19:43 33.679335 -117.862353 116 64ft 0kts
06-Oct-18 19:44 33.679335 -117.862353 116 64ft 0kts
06-Oct-18 19:45 33.679335 -117.862353 116 64ft 0kts
06-Oct-18 19:46 33.679335 -117.862353 116 64ft 0kts
06-Oct-18 19:47 33.679335 -117.862353 116 64ft 0kts
06-Oct-18 19:48 33.679335 -117.862353 116 64ft 0kts
06-Oct-18 19:49 33.679335 -117.862353 116 64ft 0kts
06-Oct-18 19:50 33.679335 -117.862353 116 64ft 0kts
06-Oct-18 19:51 33.679335 -117.862353 116 64ft 0kts
06-Oct-18 19:52 33.679335 -117.862353 116 64ft 0kts
06-Oct-18 19:53 33.679335 -117.862353 116 64ft 0kts
06-Oct-18 19:54 33.679335 -117.862353 116 64ft 0kts
06-Oct-18 19:55 33.679335 -117.862353 116 64ft 0kts
06-Oct-18 19:56 33.679335 -117.862353 116 64ft 0kts
06-Oct-18 19:57 33.679335 -117.862353 116 64ft 0kts
06-Oct-18 19:58 33.679335 -117.862353 116 64ft 0kts
06-Oct-18 19:59 33.679335 -117.862353 116 64ft 0kts
06-Oct-18 20:00 33.679335 -117.862353 116 64ft 0kts
06-Oct-18 20:01 33.679335 -117.862353 116 64ft 0kts
06-Oct-18 20:02 33.679335 -117.862353 116 64ft 0kts
06-Oct-18 20:03 33.679335 -117.862353 116 64ft 0kts
06-Oct-18 20:04 33.679335 -117.862353 116 64ft 0kts
06-Oct-18 20:05 33.679335 -117.862353 116 64ft 0kts
06-Oct-18 20:06 33.679335 -117.862353 116 64ft 0kts
06-Oct-18 20:07 33.679335 -117.862353 116 64ft 0kts
06-Oct-18 20:08 33.679335 -117.862353 116 64ft 0kts
06-Oct-18 20:09 33.679335 -117.862353 116 64ft 0kts
06-Oct-18 20:10 33.679335 -117.862353 116 64ft 0kts
06-Oct-18 20:11 33.679335 -117.862353 116 64ft 0kts
06-Oct-18 20:12 33.679335 -117.862353 116 64ft 0kts
06-Oct-18 20:13 33.679335 -117.862353 116 64ft 0kts
06-Oct-18 20:14 33.679487 -117.862816 85 64ft 2kts
06-Oct-18 20:15 33.679262 -117.863191 27 64ft 0kts
06-Oct-18 20:16 33.679263 -117.863191 27 64ft 0kts
06-Oct-18 20:17 33.679263 -117.863191 27 64ft 0kts
06-Oct-18 20:18 33.679279 -117.863181 27 64ft 1kts
06-Oct-18 20:19 33.682404 -117.861216 28 64ft 2kts
06-Oct-18 20:20 33.682615 -117.860815 175 64ft 8kts
06-Oct-18 20:21 33.680603 -117.863046 296 64ft 0kts
06-Oct-18 20:22 33.680699 -117.863272 296 64ft 7kts
06-Oct-18 20:23 33.680140 -117.865985 206 64ft 40kts
06-Oct-18 20:24 33.648033 -117.884326 193 1493ft 148kts
06-Oct-18 20:25 33.612277 -117.892230 195 3599ft 137kts
06-Oct-18 20:26 33.574330 -117.910950 227 4096ft 187kts
06-Oct-18 20:27 33.542568 -117.939392 253 4999ft 189kts
06-Oct-18 20:28 33.557523 -118.009647 298 5436ft 321kts
06-Oct-18 20:29 33.582655 -118.086476 303 8349ft 236kts
06-Oct-18 20:30 33.653611 -118.083102 27 6418ft 317kts
06-Oct-18 20:31 33.707476 -118.050549 17 8992ft 230kts
06-Oct-18 20:32 33.752596 -118.024043 21 11850ft 212kts
06-Oct-18 20:33 33.802672 -118.002972 16 13265ft 274kts
06-Oct-18 20:34 33.869063 -117.966569 19 14879ft 334kts
06-Oct-18 20:35 33.938858 -117.915740 30 17808ft 350kts
06-Oct-18 20:36 34.005289 -117.854410 28 20223ft 359kts
06-Oct-18 20:37 34.075397 -117.790233 27 22443ft 370kts
06-Oct-18 20:38 34.129900 -117.718917 41 24329ft 391kts
06-Oct-18 20:39 34.188486 -117.630618 39 26491ft 390kts
06-Oct-18 20:40 34.247933 -117.542632 40 26876ft 433kts
06-Oct-18 20:41 34.316509 -117.448367 37 26922ft 476kts
06-Oct-18 20:42 34.396787 -117.343187 38 26887ft 463kts
06-Oct-18 20:43 34.470651 -117.245216 36 26937ft 410kts
06-Oct-18 20:44 34.543678 -117.149003 37 26906ft 410kts
06-Oct-18 20:45 34.618276 -117.050564 37 26879ft 420kts
06-Oct-18 20:46 34.690957 -116.954441 39 26866ft 430kts
06-Oct-18 20:47 34.765031 -116.856105 40 26853ft 438kts
06-Oct-18 20:48 34.839958 -116.756163 40 26721ft 439kts
06-Oct-18 20:49 34.912649 -116.660484 39 25745ft 423kts
06-Oct-18 20:50 34.984155 -116.569665 40 24417ft 404kts
06-Oct-18 20:51 35.054344 -116.480394 41 23027ft 390kts
06-Oct-18 20:52 35.114494 -116.403688 41 21809ft 383kts
06-Oct-18 20:53 35.129324 -116.384847 45 21503ft 382kts
06-Oct-18 20:54 35.196419 -116.299175 46 20127ft 376kts
06-Oct-18 20:55 35.266421 -116.209413 46 18651ft 368kts
06-Oct-18 20:56 35.335495 -116.120605 46 17161ft 360kts
06-Oct-18 20:57 35.403385 -116.033089 46 15643ft 344kts
06-Oct-18 20:58 35.466629 -115.951355 46 14411ft 320kts
06-Oct-18 20:59 35.525330 -115.875313 46 13537ft 305kts
06-Oct-18 21:00 35.582992 -115.800448 46 13009ft 302kts
06-Oct-18 21:01 35.639242 -115.727254 46 13000ft 303kts
06-Oct-18 21:02 35.696099 -115.653470 45 13000ft 303kts
06-Oct-18 21:03 35.757845 -115.585159 23 13012ft 303kts
06-Oct-18 21:04 35.839753 -115.571364 2 13000ft 303kts
06-Oct-18 21:05 35.923400 -115.564984 12 12993ft 303kts
06-Oct-18 21:06 35.988101 -115.504216 59 13003ft 303kts
06-Oct-18 21:07 36.018369 -115.415217 68 12599ft 282kts
06-Oct-18 21:08 36.028641 -115.329801 95 11235ft 280kts
06-Oct-18 21:09 36.021183 -115.236517 95 9474ft 277kts
06-Oct-18 21:10 36.014855 -115.147190 94 7995ft 265kts
06-Oct-18 21:11 36.009472 -115.067690 94 7974ft 233kts
06-Oct-18 21:12 36.008612 -114.988428 91 6688ft 232kts
06-Oct-18 21:13 36.008406 -114.916947 71 5816ft 198kts
06-Oct-18 21:14 36.044665 -114.894744 351 5027ft 193kts
06-Oct-18 21:15 36.076641 -114.952272 275 4661ft 193kts
06-Oct-18 21:16 36.075207 -115.001156 268 4142ft 179kts
06-Oct-18 21:17 36.076411 -115.063991 269 2910ft 149kts
06-Oct-18 21:18 36.076379 -115.106032 270 2446ft 150kts
06-Oct-18 21:19 36.076454 -115.148873 277 2110ft 52kts
06-Oct-18 21:20 36.078285 -115.153081 324 2123ft 8kts
06-Oct-18 21:21 36.080395 -115.153571 36 2120ft 11kts
06-Oct-18 21:22 36.081640 -115.148240 69 2097ft 0kts
06-Oct-18 21:23 36.081641 -115.148237 69 2097ft 0kts

Navigation Log

Ident Type
Flight plan parsing failed, navigation log unavailable